sensor_id;sensor_type;location;lat;lon;timestamp;P1;durP1;ratioP1;P2;durP2;ratioP2
75793;SDS011;64418;47.536;19.074;2023-01-26T00:00:42;32.97;;;16.70;;
75793;SDS011;64418;47.536;19.074;2023-01-26T00:03:08;35.60;;;15.88;;
75793;SDS011;64418;47.536;19.074;2023-01-26T00:05:35;38.33;;;16.83;;
75793;SDS011;64418;47.536;19.074;2023-01-26T00:08:01;32.45;;;16.80;;
75793;SDS011;64418;47.536;19.074;2023-01-26T00:10:28;32.65;;;15.52;;
75793;SDS011;64418;47.536;19.074;2023-01-26T00:12:54;32.20;;;16.08;;
75793;SDS011;64418;47.536;19.074;2023-01-26T00:15:20;30.53;;;15.93;;
75793;SDS011;64418;47.536;19.074;2023-01-26T00:17:45;37.38;;;15.88;;
75793;SDS011;64418;47.536;19.074;2023-01-26T00:20:13;31.83;;;15.60;;
75793;SDS011;64418;47.536;19.074;2023-01-26T00:22:39;32.33;;;14.98;;
75793;SDS011;64418;47.536;19.074;2023-01-26T00:25:06;30.88;;;16.33;;
75793;SDS011;64418;47.536;19.074;2023-01-26T00:27:33;32.75;;;15.93;;
75793;SDS011;64418;47.536;19.074;2023-01-26T00:29:59;37.77;;;17.57;;
75793;SDS011;64418;47.536;19.074;2023-01-26T00:32:25;30.92;;;15.15;;
75793;SDS011;64418;47.536;19.074;2023-01-26T00:34:51;30.63;;;16.07;;
75793;SDS011;64418;47.536;19.074;2023-01-26T00:37:16;29.90;;;15.63;;
75793;SDS011;64418;47.536;19.074;2023-01-26T00:39:42;31.10;;;15.52;;
75793;SDS011;64418;47.536;19.074;2023-01-26T00:42:09;32.23;;;15.80;;
75793;SDS011;64418;47.536;19.074;2023-01-26T00:44:37;30.90;;;15.77;;
75793;SDS011;64418;47.536;19.074;2023-01-26T00:47:03;32.20;;;15.60;;
75793;SDS011;64418;47.536;19.074;2023-01-26T00:49:29;32.05;;;15.32;;
75793;SDS011;64418;47.536;19.074;2023-01-26T00:51:55;32.73;;;15.23;;
75793;SDS011;64418;47.536;19.074;2023-01-26T00:54:21;30.52;;;14.65;;
75793;SDS011;64418;47.536;19.074;2023-01-26T00:56:46;31.65;;;15.50;;
75793;SDS011;64418;47.536;19.074;2023-01-26T00:59:12;31.80;;;14.70;;
75793;SDS011;64418;47.536;19.074;2023-01-26T01:01:39;34.23;;;14.87;;
75793;SDS011;64418;47.536;19.074;2023-01-26T01:04:05;28.73;;;14.37;;
75793;SDS011;64418;47.536;19.074;2023-01-26T01:06:30;34.42;;;16.08;;
75793;SDS011;64418;47.536;19.074;2023-01-26T01:08:56;31.00;;;15.30;;
75793;SDS011;64418;47.536;19.074;2023-01-26T01:11:22;34.97;;;15.77;;
75793;SDS011;64418;47.536;19.074;2023-01-26T01:13:47;31.67;;;15.60;;
75793;SDS011;64418;47.536;19.074;2023-01-26T01:16:14;42.10;;;18.87;;
75793;SDS011;64418;47.536;19.074;2023-01-26T01:18:42;35.53;;;18.08;;
75793;SDS011;64418;47.536;19.074;2023-01-26T01:21:08;35.47;;;17.70;;
75793;SDS011;64418;47.536;19.074;2023-01-26T01:23:35;37.67;;;18.17;;
75793;SDS011;64418;47.536;19.074;2023-01-26T01:26:01;40.67;;;18.33;;
75793;SDS011;64418;47.536;19.074;2023-01-26T01:28:28;36.47;;;17.23;;
75793;SDS011;64418;47.536;19.074;2023-01-26T01:30:54;35.00;;;17.23;;
75793;SDS011;64418;47.536;19.074;2023-01-26T01:33:20;37.00;;;16.77;;
75793;SDS011;64418;47.536;19.074;2023-01-26T01:35:55;34.95;;;16.80;;
75793;SDS011;64418;47.536;19.074;2023-01-26T01:38:22;34.30;;;17.42;;
75793;SDS011;64418;47.536;19.074;2023-01-26T01:40:47;36.77;;;17.53;;
75793;SDS011;64418;47.536;19.074;2023-01-26T01:43:13;35.03;;;17.75;;
75793;SDS011;64418;47.536;19.074;2023-01-26T01:45:40;32.47;;;17.10;;
75793;SDS011;64418;47.536;19.074;2023-01-26T01:48:09;34.42;;;16.20;;
75793;SDS011;64418;47.536;19.074;2023-01-26T01:50:41;31.90;;;16.17;;
75793;SDS011;64418;47.536;19.074;2023-01-26T01:53:10;35.38;;;17.20;;
75793;SDS011;64418;47.536;19.074;2023-01-26T01:55:41;32.57;;;16.27;;
75793;SDS011;64418;47.536;19.074;2023-01-26T01:58:08;28.40;;;15.02;;
75793;SDS011;64418;47.536;19.074;2023-01-26T02:00:34;30.37;;;15.05;;
75793;SDS011;64418;47.536;19.074;2023-01-26T02:03:03;31.33;;;13.18;;
75793;SDS011;64418;47.536;19.074;2023-01-26T02:05:32;25.77;;;12.67;;
75793;SDS011;64418;47.536;19.074;2023-01-26T02:08:00;29.20;;;13.82;;
75793;SDS011;64418;47.536;19.074;2023-01-26T02:10:28;29.12;;;13.77;;
75793;SDS011;64418;47.536;19.074;2023-01-26T02:12:54;27.70;;;13.80;;
75793;SDS011;64418;47.536;19.074;2023-01-26T02:15:24;29.55;;;13.68;;
75793;SDS011;64418;47.536;19.074;2023-01-26T02:17:51;28.93;;;14.70;;
75793;SDS011;64418;47.536;19.074;2023-01-26T02:20:19;29.15;;;13.73;;
75793;SDS011;64418;47.536;19.074;2023-01-26T02:22:53;27.80;;;13.90;;
75793;SDS011;64418;47.536;19.074;2023-01-26T02:25:24;28.02;;;13.70;;
75793;SDS011;64418;47.536;19.074;2023-01-26T02:27:58;28.58;;;12.93;;
75793;SDS011;64418;47.536;19.074;2023-01-26T02:30:26;24.53;;;11.93;;
75793;SDS011;64418;47.536;19.074;2023-01-26T02:32:53;25.27;;;11.65;;
75793;SDS011;64418;47.536;19.074;2023-01-26T02:35:19;24.30;;;12.00;;
75793;SDS011;64418;47.536;19.074;2023-01-26T02:37:45;20.73;;;10.77;;
75793;SDS011;64418;47.536;19.074;2023-01-26T02:40:13;22.07;;;9.80;;
75793;SDS011;64418;47.536;19.074;2023-01-26T02:42:46;20.98;;;10.38;;
75793;SDS011;64418;47.536;19.074;2023-01-26T02:45:14;22.17;;;10.50;;
75793;SDS011;64418;47.536;19.074;2023-01-26T02:47:41;20.40;;;10.40;;
75793;SDS011;64418;47.536;19.074;2023-01-26T02:50:07;22.40;;;9.63;;
75793;SDS011;64418;47.536;19.074;2023-01-26T02:52:34;21.27;;;9.85;;
75793;SDS011;64418;47.536;19.074;2023-01-26T02:55:00;22.33;;;10.65;;
75793;SDS011;64418;47.536;19.074;2023-01-26T02:57:26;17.23;;;8.38;;
75793;SDS011;64418;47.536;19.074;2023-01-26T02:59:52;18.02;;;9.52;;
75793;SDS011;64418;47.536;19.074;2023-01-26T03:02:21;19.83;;;8.93;;
75793;SDS011;64418;47.536;19.074;2023-01-26T03:04:47;20.48;;;8.98;;
75793;SDS011;64418;47.536;19.074;2023-01-26T03:07:13;19.85;;;9.35;;
75793;SDS011;64418;47.536;19.074;2023-01-26T03:09:39;18.08;;;9.25;;
75793;SDS011;64418;47.536;19.074;2023-01-26T03:12:05;18.17;;;7.95;;
75793;SDS011;64418;47.536;19.074;2023-01-26T03:14:31;18.93;;;9.07;;
75793;SDS011;64418;47.536;19.074;2023-01-26T03:16:57;18.33;;;8.82;;
75793;SDS011;64418;47.536;19.074;2023-01-26T03:19:24;19.03;;;8.87;;
75793;SDS011;64418;47.536;19.074;2023-01-26T03:21:50;18.23;;;8.50;;
75793;SDS011;64418;47.536;19.074;2023-01-26T03:24:15;18.17;;;8.40;;
75793;SDS011;64418;47.536;19.074;2023-01-26T03:26:41;18.87;;;8.60;;
75793;SDS011;64418;47.536;19.074;2023-01-26T03:29:07;19.58;;;8.93;;
75793;SDS011;64418;47.536;19.074;2023-01-26T03:31:33;18.67;;;9.23;;
75793;SDS011;64418;47.536;19.074;2023-01-26T03:33:59;18.15;;;8.52;;
75793;SDS011;64418;47.536;19.074;2023-01-26T03:36:26;18.55;;;9.15;;
75793;SDS011;64418;47.536;19.074;2023-01-26T03:38:52;18.05;;;9.05;;
75793;SDS011;64418;47.536;19.074;2023-01-26T03:41:17;18.53;;;8.50;;
75793;SDS011;64418;47.536;19.074;2023-01-26T03:43:43;16.80;;;8.57;;
75793;SDS011;64418;47.536;19.074;2023-01-26T03:46:09;18.03;;;8.60;;
75793;SDS011;64418;47.536;19.074;2023-01-26T03:48:39;20.60;;;9.32;;
75793;SDS011;64418;47.536;19.074;2023-01-26T03:51:04;20.80;;;9.23;;
75793;SDS011;64418;47.536;19.074;2023-01-26T03:53:31;15.90;;;8.27;;
75793;SDS011;64418;47.536;19.074;2023-01-26T03:55:57;19.83;;;9.10;;
75793;SDS011;64418;47.536;19.074;2023-01-26T03:58:23;18.87;;;9.52;;
75793;SDS011;64418;47.536;19.074;2023-01-26T04:00:48;16.80;;;7.83;;
75793;SDS011;64418;47.536;19.074;2023-01-26T04:03:15;21.58;;;9.60;;
75793;SDS011;64418;47.536;19.074;2023-01-26T04:05:41;20.65;;;9.00;;
75793;SDS011;64418;47.536;19.074;2023-01-26T04:08:07;20.40;;;9.57;;
75793;SDS011;64418;47.536;19.074;2023-01-26T04:10:34;19.20;;;10.02;;
75793;SDS011;64418;47.536;19.074;2023-01-26T04:13:01;20.42;;;9.70;;
75793;SDS011;64418;47.536;19.074;2023-01-26T04:15:26;18.75;;;9.30;;
75793;SDS011;64418;47.536;19.074;2023-01-26T04:17:52;20.27;;;10.77;;
75793;SDS011;64418;47.536;19.074;2023-01-26T04:20:18;19.83;;;9.40;;
75793;SDS011;64418;47.536;19.074;2023-01-26T04:22:43;20.87;;;9.73;;
75793;SDS011;64418;47.536;19.074;2023-01-26T04:25:10;17.92;;;9.07;;
75793;SDS011;64418;47.536;19.074;2023-01-26T04:27:38;19.10;;;8.88;;
75793;SDS011;64418;47.536;19.074;2023-01-26T04:30:05;19.30;;;9.13;;
75793;SDS011;64418;47.536;19.074;2023-01-26T04:32:33;19.48;;;8.73;;
75793;SDS011;64418;47.536;19.074;2023-01-26T04:34:58;18.95;;;8.27;;
75793;SDS011;64418;47.536;19.074;2023-01-26T04:37:24;17.73;;;9.03;;
75793;SDS011;64418;47.536;19.074;2023-01-26T04:39:49;18.37;;;8.80;;
75793;SDS011;64418;47.536;19.074;2023-01-26T04:42:15;20.20;;;9.30;;
75793;SDS011;64418;47.536;19.074;2023-01-26T04:44:42;16.62;;;8.15;;
75793;SDS011;64418;47.536;19.074;2023-01-26T04:47:08;19.17;;;8.73;;
75793;SDS011;64418;47.536;19.074;2023-01-26T04:49:34;17.20;;;9.07;;
75793;SDS011;64418;47.536;19.074;2023-01-26T04:52:00;23.08;;;9.05;;
75793;SDS011;64418;47.536;19.074;2023-01-26T04:54:26;21.05;;;10.18;;
75793;SDS011;64418;47.536;19.074;2023-01-26T04:56:53;19.00;;;9.10;;
75793;SDS011;64418;47.536;19.074;2023-01-26T04:59:19;20.95;;;9.63;;
75793;SDS011;64418;47.536;19.074;2023-01-26T05:01:46;17.85;;;9.40;;
75793;SDS011;64418;47.536;19.074;2023-01-26T05:04:11;23.52;;;10.20;;
75793;SDS011;64418;47.536;19.074;2023-01-26T05:06:38;20.47;;;9.23;;
75793;SDS011;64418;47.536;19.074;2023-01-26T05:09:03;18.85;;;9.20;;
75793;SDS011;64418;47.536;19.074;2023-01-26T05:11:29;19.70;;;9.20;;
75793;SDS011;64418;47.536;19.074;2023-01-26T05:13:55;17.37;;;8.70;;
75793;SDS011;64418;47.536;19.074;2023-01-26T05:16:21;19.35;;;8.68;;
75793;SDS011;64418;47.536;19.074;2023-01-26T05:18:48;17.77;;;8.15;;
75793;SDS011;64418;47.536;19.074;2023-01-26T05:21:14;16.37;;;8.23;;
75793;SDS011;64418;47.536;19.074;2023-01-26T05:23:40;21.02;;;8.80;;
75793;SDS011;64418;47.536;19.074;2023-01-26T05:26:05;18.55;;;8.00;;
75793;SDS011;64418;47.536;19.074;2023-01-26T05:28:32;16.80;;;7.90;;
75793;SDS011;64418;47.536;19.074;2023-01-26T05:30:59;17.30;;;7.95;;
75793;SDS011;64418;47.536;19.074;2023-01-26T05:33:25;16.90;;;8.60;;
75793;SDS011;64418;47.536;19.074;2023-01-26T05:35:52;17.23;;;8.23;;
75793;SDS011;64418;47.536;19.074;2023-01-26T05:38:21;18.97;;;7.83;;
75793;SDS011;64418;47.536;19.074;2023-01-26T05:40:47;17.02;;;7.18;;
75793;SDS011;64418;47.536;19.074;2023-01-26T05:43:12;16.50;;;7.85;;
75793;SDS011;64418;47.536;19.074;2023-01-26T05:45:38;18.60;;;7.73;;
75793;SDS011;64418;47.536;19.074;2023-01-26T05:48:05;14.73;;;7.70;;
75793;SDS011;64418;47.536;19.074;2023-01-26T05:50:31;16.83;;;9.02;;
75793;SDS011;64418;47.536;19.074;2023-01-26T05:52:58;15.43;;;7.95;;
75793;SDS011;64418;47.536;19.074;2023-01-26T05:55:24;16.73;;;8.35;;
75793;SDS011;64418;47.536;19.074;2023-01-26T05:57:50;17.90;;;7.60;;
75793;SDS011;64418;47.536;19.074;2023-01-26T06:02:42;15.85;;;7.20;;
75793;SDS011;64418;47.536;19.074;2023-01-26T06:05:07;13.77;;;7.03;;
75793;SDS011;64418;47.536;19.074;2023-01-26T06:07:34;20.15;;;8.05;;
75793;SDS011;64418;47.536;19.074;2023-01-26T06:10:01;17.70;;;8.03;;
75793;SDS011;64418;47.536;19.074;2023-01-26T06:12:27;18.25;;;7.87;;
75793;SDS011;64418;47.536;19.074;2023-01-26T06:14:52;16.58;;;7.82;;
75793;SDS011;64418;47.536;19.074;2023-01-26T06:17:18;14.37;;;7.07;;
75793;SDS011;64418;47.536;19.074;2023-01-26T06:19:44;18.73;;;7.70;;
75793;SDS011;64418;47.536;19.074;2023-01-26T06:22:10;15.43;;;7.95;;
75793;SDS011;64418;47.536;19.074;2023-01-26T06:24:37;14.30;;;8.10;;
75793;SDS011;64418;47.536;19.074;2023-01-26T06:27:05;16.48;;;8.25;;
75793;SDS011;64418;47.536;19.074;2023-01-26T06:29:31;15.65;;;8.23;;
75793;SDS011;64418;47.536;19.074;2023-01-26T06:31:57;16.65;;;8.13;;
75793;SDS011;64418;47.536;19.074;2023-01-26T06:34:23;18.43;;;8.20;;
75793;SDS011;64418;47.536;19.074;2023-01-26T06:36:52;22.87;;;8.20;;
75793;SDS011;64418;47.536;19.074;2023-01-26T06:39:18;17.83;;;8.45;;
75793;SDS011;64418;47.536;19.074;2023-01-26T06:41:44;21.03;;;8.20;;
75793;SDS011;64418;47.536;19.074;2023-01-26T06:44:11;22.23;;;8.50;;
75793;SDS011;64418;47.536;19.074;2023-01-26T06:46:38;17.60;;;7.37;;
75793;SDS011;64418;47.536;19.074;2023-01-26T06:49:04;14.10;;;7.30;;
75793;SDS011;64418;47.536;19.074;2023-01-26T06:51:41;17.15;;;7.28;;
75793;SDS011;64418;47.536;19.074;2023-01-26T06:54:10;16.67;;;7.17;;
75793;SDS011;64418;47.536;19.074;2023-01-26T06:56:37;17.02;;;8.07;;
75793;SDS011;64418;47.536;19.074;2023-01-26T06:59:03;14.68;;;7.00;;
75793;SDS011;64418;47.536;19.074;2023-01-26T07:01:31;12.55;;;6.65;;
75793;SDS011;64418;47.536;19.074;2023-01-26T07:04:00;16.08;;;6.97;;
75793;SDS011;64418;47.536;19.074;2023-01-26T07:06:26;12.53;;;7.00;;
75793;SDS011;64418;47.536;19.074;2023-01-26T07:08:52;12.35;;;7.25;;
75793;SDS011;64418;47.536;19.074;2023-01-26T07:11:18;16.90;;;7.75;;
75793;SDS011;64418;47.536;19.074;2023-01-26T07:13:44;17.62;;;7.07;;
75793;SDS011;64418;47.536;19.074;2023-01-26T07:16:10;15.30;;;7.43;;
75793;SDS011;64418;47.536;19.074;2023-01-26T07:18:39;16.83;;;7.70;;
75793;SDS011;64418;47.536;19.074;2023-01-26T07:21:06;15.20;;;7.28;;
75793;SDS011;64418;47.536;19.074;2023-01-26T07:23:35;14.95;;;7.50;;
75793;SDS011;64418;47.536;19.074;2023-01-26T07:26:01;15.80;;;7.57;;
75793;SDS011;64418;47.536;19.074;2023-01-26T07:28:27;14.57;;;7.40;;
75793;SDS011;64418;47.536;19.074;2023-01-26T07:30:56;16.05;;;6.95;;
75793;SDS011;64418;47.536;19.074;2023-01-26T07:33:22;17.37;;;7.57;;
75793;SDS011;64418;47.536;19.074;2023-01-26T07:35:49;17.10;;;7.23;;
75793;SDS011;64418;47.536;19.074;2023-01-26T07:38:17;14.60;;;7.07;;
75793;SDS011;64418;47.536;19.074;2023-01-26T07:40:43;15.48;;;7.10;;
75793;SDS011;64418;47.536;19.074;2023-01-26T07:43:08;16.73;;;6.63;;
75793;SDS011;64418;47.536;19.074;2023-01-26T07:45:35;18.45;;;7.37;;
75793;SDS011;64418;47.536;19.074;2023-01-26T07:48:00;18.67;;;6.75;;
75793;SDS011;64418;47.536;19.074;2023-01-26T07:50:26;15.77;;;7.20;;
75793;SDS011;64418;47.536;19.074;2023-01-26T07:52:54;15.55;;;6.65;;
75793;SDS011;64418;47.536;19.074;2023-01-26T07:55:20;13.48;;;6.70;;
75793;SDS011;64418;47.536;19.074;2023-01-26T07:57:46;13.53;;;6.70;;
75793;SDS011;64418;47.536;19.074;2023-01-26T08:00:13;11.32;;;6.57;;
75793;SDS011;64418;47.536;19.074;2023-01-26T08:02:40;14.93;;;7.12;;
75793;SDS011;64418;47.536;19.074;2023-01-26T08:05:06;15.38;;;6.70;;
75793;SDS011;64418;47.536;19.074;2023-01-26T08:07:33;15.98;;;6.43;;
75793;SDS011;64418;47.536;19.074;2023-01-26T08:10:00;16.20;;;6.57;;
75793;SDS011;64418;47.536;19.074;2023-01-26T08:12:26;16.17;;;7.43;;
75793;SDS011;64418;47.536;19.074;2023-01-26T08:14:56;15.50;;;7.07;;
75793;SDS011;64418;47.536;19.074;2023-01-26T08:17:22;13.18;;;6.35;;
75793;SDS011;64418;47.536;19.074;2023-01-26T08:19:52;14.17;;;7.20;;
75793;SDS011;64418;47.536;19.074;2023-01-26T08:22:19;14.98;;;7.28;;
75793;SDS011;64418;47.536;19.074;2023-01-26T08:24:45;16.50;;;7.20;;
75793;SDS011;64418;47.536;19.074;2023-01-26T08:27:12;15.67;;;6.73;;
75793;SDS011;64418;47.536;19.074;2023-01-26T08:29:38;19.17;;;7.60;;
75793;SDS011;64418;47.536;19.074;2023-01-26T08:32:07;18.30;;;7.53;;
75793;SDS011;64418;47.536;19.074;2023-01-26T08:34:32;16.20;;;7.40;;
75793;SDS011;64418;47.536;19.074;2023-01-26T08:36:58;14.63;;;6.63;;
75793;SDS011;64418;47.536;19.074;2023-01-26T08:39:24;16.77;;;7.80;;
75793;SDS011;64418;47.536;19.074;2023-01-26T08:41:50;12.65;;;7.47;;
75793;SDS011;64418;47.536;19.074;2023-01-26T08:44:17;18.27;;;8.30;;
75793;SDS011;64418;47.536;19.074;2023-01-26T08:46:43;18.60;;;8.13;;
75793;SDS011;64418;47.536;19.074;2023-01-26T08:49:09;16.55;;;7.45;;
75793;SDS011;64418;47.536;19.074;2023-01-26T08:51:35;23.57;;;8.20;;
75793;SDS011;64418;47.536;19.074;2023-01-26T08:54:01;15.32;;;7.47;;
75793;SDS011;64418;47.536;19.074;2023-01-26T08:56:29;14.48;;;7.03;;
75793;SDS011;64418;47.536;19.074;2023-01-26T08:58:55;14.53;;;7.90;;
75793;SDS011;64418;47.536;19.074;2023-01-26T09:01:23;17.40;;;8.15;;
75793;SDS011;64418;47.536;19.074;2023-01-26T09:03:48;17.58;;;8.00;;
75793;SDS011;64418;47.536;19.074;2023-01-26T09:06:14;17.67;;;7.80;;
75793;SDS011;64418;47.536;19.074;2023-01-26T09:08:40;15.38;;;7.87;;
75793;SDS011;64418;47.536;19.074;2023-01-26T09:11:07;18.35;;;8.73;;
75793;SDS011;64418;47.536;19.074;2023-01-26T09:13:33;15.70;;;8.15;;
75793;SDS011;64418;47.536;19.074;2023-01-26T09:16:01;19.27;;;8.20;;
75793;SDS011;64418;47.536;19.074;2023-01-26T09:18:29;16.20;;;7.90;;
75793;SDS011;64418;47.536;19.074;2023-01-26T09:21:01;22.30;;;9.50;;
75793;SDS011;64418;47.536;19.074;2023-01-26T09:23:27;19.30;;;8.85;;
75793;SDS011;64418;47.536;19.074;2023-01-26T09:25:53;18.03;;;8.77;;
75793;SDS011;64418;47.536;19.074;2023-01-26T09:28:19;17.23;;;9.13;;
75793;SDS011;64418;47.536;19.074;2023-01-26T09:30:45;18.60;;;9.32;;
75793;SDS011;64418;47.536;19.074;2023-01-26T09:33:10;17.97;;;8.40;;
75793;SDS011;64418;47.536;19.074;2023-01-26T09:35:38;21.98;;;8.75;;
75793;SDS011;64418;47.536;19.074;2023-01-26T09:38:04;16.85;;;8.45;;
75793;SDS011;64418;47.536;19.074;2023-01-26T09:40:34;18.85;;;8.82;;
75793;SDS011;64418;47.536;19.074;2023-01-26T09:43:08;21.80;;;9.33;;
75793;SDS011;64418;47.536;19.074;2023-01-26T09:45:47;23.77;;;8.68;;
75793;SDS011;64418;47.536;19.074;2023-01-26T09:48:21;18.52;;;7.80;;
75793;SDS011;64418;47.536;19.074;2023-01-26T09:51:00;17.08;;;8.20;;
75793;SDS011;64418;47.536;19.074;2023-01-26T09:53:37;15.68;;;8.32;;
75793;SDS011;64418;47.536;19.074;2023-01-26T09:56:09;27.90;;;8.97;;
75793;SDS011;64418;47.536;19.074;2023-01-26T09:58:41;17.48;;;8.77;;
75793;SDS011;64418;47.536;19.074;2023-01-26T10:01:12;26.17;;;8.60;;
75793;SDS011;64418;47.536;19.074;2023-01-26T10:03:45;17.98;;;8.90;;
75793;SDS011;64418;47.536;19.074;2023-01-26T10:06:20;17.33;;;9.07;;
75793;SDS011;64418;47.536;19.074;2023-01-26T10:08:49;16.37;;;8.57;;
75793;SDS011;64418;47.536;19.074;2023-01-26T10:11:15;21.15;;;9.55;;
75793;SDS011;64418;47.536;19.074;2023-01-26T10:13:47;20.12;;;8.80;;
75793;SDS011;64418;47.536;19.074;2023-01-26T10:16:18;15.65;;;8.50;;
75793;SDS011;64418;47.536;19.074;2023-01-26T10:18:46;19.67;;;9.17;;
75793;SDS011;64418;47.536;19.074;2023-01-26T10:21:19;23.48;;;14.48;;
75793;SDS011;64418;47.536;19.074;2023-01-26T10:23:47;21.45;;;9.45;;
75793;SDS011;64418;47.536;19.074;2023-01-26T10:26:16;36.22;;;17.05;;
75793;SDS011;64418;47.536;19.074;2023-01-26T10:28:44;22.17;;;9.47;;
75793;SDS011;64418;47.536;19.074;2023-01-26T10:31:11;19.90;;;9.02;;
75793;SDS011;64418;47.536;19.074;2023-01-26T10:33:40;18.83;;;8.13;;
75793;SDS011;64418;47.536;19.074;2023-01-26T10:36:14;13.23;;;7.25;;
75793;SDS011;64418;47.536;19.074;2023-01-26T10:38:42;19.12;;;8.35;;
75793;SDS011;64418;47.536;19.074;2023-01-26T10:43:52;15.27;;;6.70;;
75793;SDS011;64418;47.536;19.074;2023-01-26T10:46:26;19.08;;;7.82;;
75793;SDS011;64418;47.536;19.074;2023-01-26T10:48:54;15.40;;;7.20;;
75793;SDS011;64418;47.536;19.074;2023-01-26T10:51:23;14.95;;;7.22;;
75793;SDS011;64418;47.536;19.074;2023-01-26T10:56:42;11.38;;;6.45;;
75793;SDS011;64418;47.536;19.074;2023-01-26T10:59:09;14.60;;;7.95;;
75793;SDS011;64418;47.536;19.074;2023-01-26T11:01:50;17.50;;;8.63;;
75793;SDS011;64418;47.536;19.074;2023-01-26T11:04:16;18.48;;;7.68;;
75793;SDS011;64418;47.536;19.074;2023-01-26T11:06:42;15.00;;;7.97;;
75793;SDS011;64418;47.536;19.074;2023-01-26T11:09:10;15.45;;;7.60;;
75793;SDS011;64418;47.536;19.074;2023-01-26T11:11:43;17.33;;;8.00;;
75793;SDS011;64418;47.536;19.074;2023-01-26T11:14:19;15.63;;;8.50;;
75793;SDS011;64418;47.536;19.074;2023-01-26T11:16:49;17.00;;;7.80;;
75793;SDS011;64418;47.536;19.074;2023-01-26T11:19:21;16.45;;;7.90;;
75793;SDS011;64418;47.536;19.074;2023-01-26T11:22:10;15.98;;;7.78;;
75793;SDS011;64418;47.536;19.074;2023-01-26T11:24:41;17.60;;;8.38;;
75793;SDS011;64418;47.536;19.074;2023-01-26T11:27:19;21.05;;;8.07;;
75793;SDS011;64418;47.536;19.074;2023-01-26T11:30:01;13.47;;;7.50;;
75793;SDS011;64418;47.536;19.074;2023-01-26T11:32:38;16.87;;;8.30;;
75793;SDS011;64418;47.536;19.074;2023-01-26T11:35:13;14.98;;;7.57;;
75793;SDS011;64418;47.536;19.074;2023-01-26T11:37:46;16.27;;;8.23;;
75793;SDS011;64418;47.536;19.074;2023-01-26T11:40:25;18.08;;;8.32;;
75793;SDS011;64418;47.536;19.074;2023-01-26T11:43:08;17.23;;;9.17;;
75793;SDS011;64418;47.536;19.074;2023-01-26T11:46:00;20.27;;;9.02;;
75793;SDS011;64418;47.536;19.074;2023-01-26T11:48:38;19.77;;;8.77;;
75793;SDS011;64418;47.536;19.074;2023-01-26T11:51:14;17.35;;;8.13;;
75793;SDS011;64418;47.536;19.074;2023-01-26T11:54:03;18.33;;;9.20;;
75793;SDS011;64418;47.536;19.074;2023-01-26T11:56:44;19.10;;;9.57;;
75793;SDS011;64418;47.536;19.074;2023-01-26T11:59:16;20.00;;;9.10;;
75793;SDS011;64418;47.536;19.074;2023-01-26T12:01:47;20.17;;;9.38;;
75793;SDS011;64418;47.536;19.074;2023-01-26T12:04:18;19.30;;;9.48;;
75793;SDS011;64418;47.536;19.074;2023-01-26T12:06:46;21.15;;;9.30;;
75793;SDS011;64418;47.536;19.074;2023-01-26T12:09:15;19.83;;;9.17;;
75793;SDS011;64418;47.536;19.074;2023-01-26T12:11:46;21.37;;;10.07;;
75793;SDS011;64418;47.536;19.074;2023-01-26T12:14:22;23.55;;;9.90;;
75793;SDS011;64418;47.536;19.074;2023-01-26T12:19:56;24.65;;;11.12;;
75793;SDS011;64418;47.536;19.074;2023-01-26T12:22:27;22.97;;;9.97;;
75793;SDS011;64418;47.536;19.074;2023-01-26T12:24:56;21.17;;;10.30;;
75793;SDS011;64418;47.536;19.074;2023-01-26T12:27:28;21.85;;;9.52;;
75793;SDS011;64418;47.536;19.074;2023-01-26T12:30:04;21.65;;;9.50;;
75793;SDS011;64418;47.536;19.074;2023-01-26T12:32:43;20.25;;;9.88;;
75793;SDS011;64418;47.536;19.074;2023-01-26T12:35:09;20.60;;;9.73;;
75793;SDS011;64418;47.536;19.074;2023-01-26T12:37:40;22.05;;;10.32;;
75793;SDS011;64418;47.536;19.074;2023-01-26T12:40:13;24.20;;;10.57;;
75793;SDS011;64418;47.536;19.074;2023-01-26T12:42:51;21.00;;;10.65;;
75793;SDS011;64418;47.536;19.074;2023-01-26T12:45:27;21.13;;;10.27;;
75793;SDS011;64418;47.536;19.074;2023-01-26T12:48:00;21.30;;;9.55;;
75793;SDS011;64418;47.536;19.074;2023-01-26T12:50:36;20.42;;;9.90;;
75793;SDS011;64418;47.536;19.074;2023-01-26T12:53:06;21.30;;;9.00;;
75793;SDS011;64418;47.536;19.074;2023-01-26T12:55:38;21.42;;;10.27;;
75793;SDS011;64418;47.536;19.074;2023-01-26T12:58:09;23.43;;;10.00;;
75793;SDS011;64418;47.536;19.074;2023-01-26T13:00:47;23.27;;;9.57;;
75793;SDS011;64418;47.536;19.074;2023-01-26T13:03:17;21.95;;;9.70;;
75793;SDS011;64418;47.536;19.074;2023-01-26T13:05:53;23.27;;;9.68;;
75793;SDS011;64418;47.536;19.074;2023-01-26T13:08:38;22.70;;;9.65;;
75793;SDS011;64418;47.536;19.074;2023-01-26T13:11:06;23.80;;;10.87;;
75793;SDS011;64418;47.536;19.074;2023-01-26T13:13:33;21.65;;;9.98;;
75793;SDS011;64418;47.536;19.074;2023-01-26T13:16:30;23.17;;;10.88;;
75793;SDS011;64418;47.536;19.074;2023-01-26T13:18:58;20.40;;;9.05;;
75793;SDS011;64418;47.536;19.074;2023-01-26T13:21:25;20.92;;;9.63;;
75793;SDS011;64418;47.536;19.074;2023-01-26T13:23:51;21.93;;;10.13;;
75793;SDS011;64418;47.536;19.074;2023-01-26T13:26:22;26.23;;;9.88;;
75793;SDS011;64418;47.536;19.074;2023-01-26T13:31:56;21.67;;;10.13;;
75793;SDS011;64418;47.536;19.074;2023-01-26T13:34:24;20.25;;;9.88;;
75793;SDS011;64418;47.536;19.074;2023-01-26T13:36:52;25.80;;;9.93;;
75793;SDS011;64418;47.536;19.074;2023-01-26T13:39:23;24.37;;;10.45;;
75793;SDS011;64418;47.536;19.074;2023-01-26T13:41:54;20.35;;;10.35;;
75793;SDS011;64418;47.536;19.074;2023-01-26T13:44:21;25.58;;;11.57;;
75793;SDS011;64418;47.536;19.074;2023-01-26T13:46:56;23.42;;;10.95;;
75793;SDS011;64418;47.536;19.074;2023-01-26T13:49:35;27.67;;;11.40;;
75793;SDS011;64418;47.536;19.074;2023-01-26T13:52:03;23.20;;;11.12;;
75793;SDS011;64418;47.536;19.074;2023-01-26T13:54:39;23.38;;;11.02;;
75793;SDS011;64418;47.536;19.074;2023-01-26T13:57:06;27.75;;;11.98;;
75793;SDS011;64418;47.536;19.074;2023-01-26T13:59:46;23.05;;;11.65;;
75793;SDS011;64418;47.536;19.074;2023-01-26T14:02:21;23.00;;;10.57;;
75793;SDS011;64418;47.536;19.074;2023-01-26T14:04:49;20.55;;;10.18;;
75793;SDS011;64418;47.536;19.074;2023-01-26T14:07:22;22.98;;;10.82;;
75793;SDS011;64418;47.536;19.074;2023-01-26T14:09:52;22.52;;;11.40;;
75793;SDS011;64418;47.536;19.074;2023-01-26T14:12:26;22.48;;;10.27;;
75793;SDS011;64418;47.536;19.074;2023-01-26T14:14:56;23.43;;;10.27;;
75793;SDS011;64418;47.536;19.074;2023-01-26T14:17:28;23.05;;;10.32;;
75793;SDS011;64418;47.536;19.074;2023-01-26T14:19:56;21.15;;;9.95;;
75793;SDS011;64418;47.536;19.074;2023-01-26T14:22:23;19.20;;;10.27;;
75793;SDS011;64418;47.536;19.074;2023-01-26T14:24:49;22.45;;;10.93;;
75793;SDS011;64418;47.536;19.074;2023-01-26T14:27:21;20.63;;;9.53;;
75793;SDS011;64418;47.536;19.074;2023-01-26T14:29:57;23.75;;;10.32;;
75793;SDS011;64418;47.536;19.074;2023-01-26T14:32:23;18.08;;;9.55;;
75793;SDS011;64418;47.536;19.074;2023-01-26T14:34:52;22.75;;;10.35;;
75793;SDS011;64418;47.536;19.074;2023-01-26T14:37:19;20.67;;;9.05;;
75793;SDS011;64418;47.536;19.074;2023-01-26T14:39:46;19.07;;;9.23;;